Time;durP1;ratioP1;P1;durP2;ratioP2;P2;SDS_P1;SDS_P2;PMS_P1;PMS_P2;Temp;Humidity;BMP_temperature;BMP_pressure;BME280_temperature;BME280_humidity;BME280_pressure;Samples;Min_cycle;Max_cycle;Signal;HPM_P1;HPM_P2
2022/06/10 00:02:20;;;;;;;0.82;0.80;;;;;;;;;;5047950;28;20096;-80
2022/06/10 00:04:48;;;;;;;1.88;0.90;;;;;;;;;;5047984;28;20148;-80
2022/06/10 00:07:13;;;;;;;0.63;0.63;;;;;;;;;;5015888;28;20108;-79
2022/06/10 00:09:39;;;;;;;0.90;0.80;;;;;;;;;;5014687;28;20041;-78
2022/06/10 00:12:05;;;;;;;0.45;0.45;;;;;;;;;;5015764;28;20022;-79
2022/06/10 00:14:33;;;;;;;1.65;0.68;;;;;;;;;;5015776;28;20026;-80
2022/06/10 00:16:58;;;;;;;0.70;0.50;;;;;;;;;;5046995;28;20026;-79
2022/06/10 00:19:23;;;;;;;0.50;0.50;;;;;;;;;;5015544;28;20040;-79
2022/06/10 00:21:49;;;;;;;1.20;0.95;;;;;;;;;;5015531;28;20029;-80
2022/06/10 00:24:17;;;;;;;1.08;0.93;;;;;;;;;;5047649;28;20034;-80
2022/06/10 00:26:42;;;;;;;0.50;0.50;;;;;;;;;;5015434;28;20036;-81
2022/06/10 00:29:10;;;;;;;0.75;0.75;;;;;;;;;;5014461;28;20094;-81
2022/06/10 00:31:37;;;;;;;0.30;0.30;;;;;;;;;;5014780;28;20104;-80
2022/06/10 00:34:02;;;;;;;1.13;0.63;;;;;;;;;;5015944;28;20029;-81
2022/06/10 00:36:28;;;;;;;0.95;0.45;;;;;;;;;;5015125;28;20026;-80
2022/06/10 00:38:53;;;;;;;0.68;0.63;;;;;;;;;;5047397;28;20029;-79
2022/06/10 00:41:19;;;;;;;0.60;0.60;;;;;;;;;;5015229;28;20022;-80
2022/06/10 00:43:45;;;;;;;0.50;0.50;;;;;;;;;;5015151;28;20034;-80
2022/06/10 00:46:21;;;;;;;1.73;1.40;;;;;;;;;;5014179;28;20053;-82
2022/06/10 00:48:50;;;;;;;0.25;0.25;;;;;;;;;;5047209;28;20026;-81
2022/06/10 00:51:19;;;;;;;0.85;0.82;;;;;;;;;;5015163;28;20033;-81
2022/06/10 00:53:50;;;;;;;1.38;0.82;;;;;;;;;;5014906;28;20030;-81
2022/06/10 00:56:18;;;;;;;1.10;0.68;;;;;;;;;;5047162;28;20045;-81
2022/06/10 00:58:53;;;;;;;0.95;0.82;;;;;;;;;;5046975;28;20013;-82
2022/06/10 01:01:19;;;;;;;0.38;0.38;;;;;;;;;;5047195;28;20109;-81
2022/06/10 01:03:47;;;;;;;0.40;0.40;;;;;;;;;;5014286;28;20038;-80
2022/06/10 01:06:12;;;;;;;1.73;1.08;;;;;;;;;;5014883;28;20358;-80
2022/06/10 01:08:39;;;;;;;2.17;0.85;;;;;;;;;;5014857;28;20017;-81
2022/06/10 01:11:29;;;;;;;0.65;0.45;;;;;;;;;;5014593;28;20030;-81
2022/06/10 01:14:00;;;;;;;1.20;0.20;;;;;;;;;;5015114;28;20034;-80
2022/06/10 01:16:51;;;;;;;0.47;0.38;;;;;;;;;;5015104;28;20033;-82
2022/06/10 01:19:43;;;;;;;0.65;0.65;;;;;;;;;;5014688;28;20104;-80
2022/06/10 01:22:30;;;;;;;3.30;1.10;;;;;;;;;;5047398;28;20454;-81
2022/06/10 01:25:36;;;;;;;0.47;0.47;;;;;;;;;;5046895;28;20033;-80
2022/06/10 01:28:32;;;;;;;1.33;0.90;;;;;;;;;;5014952;28;20459;-81
2022/06/10 01:31:07;;;;;;;0.63;0.52;;;;;;;;;;5014745;28;20041;-80
2022/06/10 01:33:39;;;;;;;5.53;0.80;;;;;;;;;;5014999;28;20025;-81
2022/06/10 01:36:07;;;;;;;0.45;0.35;;;;;;;;;;5015320;28;20448;-81
2022/06/10 01:38:49;;;;;;;2.10;0.80;;;;;;;;;;5013836;28;20026;-81
2022/06/10 01:41:20;;;;;;;1.55;0.73;;;;;;;;;;5030105;28;20049;-81
2022/06/10 01:43:48;;;;;;;0.80;0.80;;;;;;;;;;5047418;28;20029;-81
2022/06/10 01:46:24;;;;;;;1.10;0.68;;;;;;;;;;5018464;28;20021;-81
2022/06/10 01:49:05;;;;;;;0.75;0.47;;;;;;;;;;5017948;28;20030;-82
2022/06/10 01:51:34;;;;;;;0.45;0.45;;;;;;;;;;5033831;28;20026;-81
2022/06/10 01:54:05;;;;;;;0.60;0.50;;;;;;;;;;5018788;28;20037;-81
2022/06/10 01:56:38;;;;;;;0.45;0.45;;;;;;;;;;5050383;28;20132;-81
2022/06/10 01:59:17;;;;;;;3.80;0.90;;;;;;;;;;5050644;28;20355;-81
2022/06/10 02:01:46;;;;;;;0.98;0.98;;;;;;;;;;5018083;28;20021;-81
2022/06/10 02:04:15;;;;;;;0.73;0.57;;;;;;;;;;5018061;28;20087;-80
2022/06/10 02:06:53;;;;;;;0.73;0.47;;;;;;;;;;5049605;28;20116;-81
2022/06/10 02:09:28;;;;;;;2.13;0.98;;;;;;;;;;5017569;28;20093;-80
2022/06/10 02:12:00;;;;;;;0.65;0.52;;;;;;;;;;5017279;28;20026;-80
2022/06/10 02:14:39;;;;;;;1.08;0.90;;;;;;;;;;5017177;28;20041;-80
2022/06/10 02:17:09;;;;;;;1.25;0.50;;;;;;;;;;5033855;28;20439;-80
2022/06/10 02:19:38;;;;;;;1.15;0.68;;;;;;;;;;5017987;28;20105;-80
2022/06/10 02:22:05;;;;;;;1.60;0.95;;;;;;;;;;5017084;28;20029;-80
2022/06/10 02:24:41;;;;;;;0.17;0.17;;;;;;;;;;5049971;28;20026;-81
2022/06/10 02:27:36;;;;;;;2.75;0.47;;;;;;;;;;5049873;28;20463;-81
2022/06/10 02:30:05;;;;;;;0.28;0.28;;;;;;;;;;5016227;28;20060;-82
2022/06/10 02:32:33;;;;;;;0.63;0.63;;;;;;;;;;5018099;28;20021;-82
2022/06/10 02:34:59;;;;;;;0.77;0.43;;;;;;;;;;5033400;28;20468;-82
2022/06/10 02:37:48;;;;;;;0.90;0.52;;;;;;;;;;5017039;28;20037;-82
2022/06/10 02:40:28;;;;;;;0.32;0.32;;;;;;;;;;5018149;28;20030;-83
2022/06/10 02:43:30;;;;;;;0.93;0.82;;;;;;;;;;5051264;28;20018;-81
2022/06/10 02:46:03;;;;;;;0.52;0.52;;;;;;;;;;5050465;28;20065;-82
2022/06/10 02:48:29;;;;;;;1.05;0.75;;;;;;;;;;5033669;28;20062;-80
2022/06/10 02:50:54;;;;;;;2.20;0.40;;;;;;;;;;5017662;28;20057;-79
2022/06/10 02:53:19;;;;;;;1.27;1.17;;;;;;;;;;5018037;28;20018;-81
2022/06/10 02:55:45;;;;;;;1.05;1.02;;;;;;;;;;5048936;28;20041;-81
2022/06/10 03:01:20;;;;;;;0.60;0.60;;;;;;;;;;5017293;28;20033;-81
2022/06/10 03:04:22;;;;;;;0.53;0.40;;;;;;;;;;5032861;28;20359;-81
2022/06/10 03:07:08;;;;;;;0.40;0.40;;;;;;;;;;5017625;28;20021;-79
2022/06/10 03:09:36;;;;;;;0.73;0.73;;;;;;;;;;5032517;28;20088;-80
2022/06/10 03:12:06;;;;;;;0.75;0.50;;;;;;;;;;5049060;28;20038;-80
2022/06/10 03:14:46;;;;;;;0.20;0.20;;;;;;;;;;5016870;28;20036;-80
2022/06/10 03:17:17;;;;;;;0.55;0.45;;;;;;;;;;5016903;28;20026;-80
2022/06/10 03:20:21;;;;;;;0.95;0.85;;;;;;;;;;5048861;28;20041;-79
2022/06/10 03:23:16;;;;;;;0.32;0.32;;;;;;;;;;5016942;28;20109;-80
2022/06/10 03:25:51;;;;;;;3.58;1.90;;;;;;;;;;5016691;28;20100;-81
2022/06/10 03:28:44;;;;;;;0.65;0.55;;;;;;;;;;5048844;28;20118;-80
2022/06/10 03:31:16;;;;;;;0.52;0.47;;;;;;;;;;5048641;28;20026;-79
2022/06/10 03:33:48;;;;;;;2.88;0.95;;;;;;;;;;5015722;28;20022;-81
2022/06/10 03:36:17;;;;;;;0.75;0.50;;;;;;;;;;5016511;28;20022;-80
2022/06/10 03:38:46;;;;;;;0.52;0.52;;;;;;;;;;5048560;28;20097;-80
2022/06/10 03:41:23;;;;;;;2.08;1.40;;;;;;;;;;5015581;28;20121;-80
2022/06/10 03:43:51;;;;;;;0.57;0.57;;;;;;;;;;5048794;28;20371;-79
2022/06/10 03:46:18;;;;;;;2.42;0.82;;;;;;;;;;5016536;28;20065;-80
2022/06/10 03:48:46;;;;;;;1.58;1.23;;;;;;;;;;5015359;28;20035;-81
2022/06/10 03:51:17;;;;;;;4.78;1.38;;;;;;;;;;5015386;28;20440;-80
2022/06/10 03:53:44;;;;;;;0.63;0.60;;;;;;;;;;5015378;28;20030;-82
2022/06/10 03:56:10;;;;;;;2.15;1.08;;;;;;;;;;5016451;28;20706;-80
2022/06/10 03:58:38;;;;;;;1.25;0.82;;;;;;;;;;5015458;28;20026;-80
2022/06/10 04:01:04;;;;;;;0.40;0.40;;;;;;;;;;5016280;28;20041;-81
2022/06/10 04:03:29;;;;;;;0.77;0.47;;;;;;;;;;5015867;28;20359;-81
2022/06/10 04:05:58;;;;;;;0.28;0.28;;;;;;;;;;5015403;28;20128;-82
2022/06/10 04:08:24;;;;;;;0.80;0.80;;;;;;;;;;5015619;28;20064;-81
2022/06/10 04:10:49;;;;;;;6.88;1.17;;;;;;;;;;5016213;28;20080;-81
2022/06/10 04:13:17;;;;;;;0.35;0.30;;;;;;;;;;5015897;28;20026;-82
2022/06/10 04:15:44;;;;;;;1.38;1.05;;;;;;;;;;5047216;28;20432;-80
2022/06/10 04:18:10;;;;;;;0.68;0.40;;;;;;;;;;5015860;28;20473;-81
2022/06/10 04:20:39;;;;;;;0.52;0.52;;;;;;;;;;5049493;28;20131;-80
2022/06/10 04:23:05;;;;;;;0.60;0.60;;;;;;;;;;5015663;28;20021;-81
2022/06/10 04:25:32;;;;;;;0.82;0.82;;;;;;;;;;5015934;28;20032;-79
2022/06/10 04:27:58;;;;;;;0.68;0.68;;;;;;;;;;5014710;28;20030;-81
2022/06/10 04:30:25;;;;;;;0.65;0.60;;;;;;;;;;5015583;28;20111;-81
2022/06/10 04:32:53;;;;;;;0.75;0.68;;;;;;;;;;5015773;28;20021;-81
2022/06/10 04:35:19;;;;;;;1.17;1.00;;;;;;;;;;5015464;28;20459;-81
2022/06/10 04:37:48;;;;;;;3.70;0.95;;;;;;;;;;5014557;28;20088;-80
2022/06/10 04:40:18;;;;;;;1.25;0.52;;;;;;;;;;5015437;28;20032;-82
2022/06/10 04:42:47;;;;;;;1.17;0.85;;;;;;;;;;5014489;28;20405;-81
2022/06/10 04:45:17;;;;;;;0.82;0.50;;;;;;;;;;5015741;28;20021;-82
2022/06/10 04:47:42;;;;;;;0.45;0.45;;;;;;;;;;5014601;28;20053;-80
2022/06/10 04:50:11;;;;;;;1.08;0.65;;;;;;;;;;5014357;28;20037;-81
2022/06/10 04:52:39;;;;;;;0.45;0.45;;;;;;;;;;5014432;28;20118;-81
2022/06/10 04:55:08;;;;;;;0.70;0.70;;;;;;;;;;5014344;28;20068;-81
2022/06/10 04:57:36;;;;;;;0.45;0.45;;;;;;;;;;5046565;28;20014;-80
2022/06/10 05:00:08;;;;;;;1.10;1.00;;;;;;;;;;5015286;28;20033;-80
2022/06/10 05:02:34;;;;;;;2.83;1.02;;;;;;;;;;5015236;28;20168;-80
2022/06/10 05:05:01;;;;;;;0.25;0.22;;;;;;;;;;5047341;28;20112;-80
2022/06/10 05:07:29;;;;;;;0.43;0.43;;;;;;;;;;5015078;28;20108;-80
2022/06/10 05:09:54;;;;;;;1.13;0.85;;;;;;;;;;5015476;28;20029;-79
2022/06/10 05:12:20;;;;;;;1.55;1.05;;;;;;;;;;5015027;28;20025;-80
2022/06/10 05:14:48;;;;;;;1.35;0.52;;;;;;;;;;5014986;28;20096;-82
2022/06/10 05:17:13;;;;;;;1.52;0.65;;;;;;;;;;5015167;28;20030;-80
2022/06/10 05:19:38;;;;;;;1.45;0.30;;;;;;;;;;5014842;28;20518;-80
2022/06/10 05:22:04;;;;;;;1.13;1.02;;;;;;;;;;5014911;28;20467;-80
2022/06/10 05:24:29;;;;;;;0.45;0.45;;;;;;;;;;5015214;28;20363;-80
2022/06/10 05:26:55;;;;;;;1.02;0.40;;;;;;;;;;5014797;28;20065;-81
2022/06/10 05:29:22;;;;;;;0.40;0.38;;;;;;;;;;5015151;28;20026;-80
2022/06/10 05:31:50;;;;;;;0.75;0.70;;;;;;;;;;5015196;28;20079;-81
2022/06/10 05:36:59;;;;;;;6.90;0.95;;;;;;;;;;5014839;28;20033;-78
2022/06/10 05:39:24;;;;;;;22.38;1.38;;;;;;;;;;5014857;28;20021;-80
2022/06/10 05:42:05;;;;;;;10.93;0.75;;;;;;;;;;5015265;28;20029;-81
2022/06/10 05:44:31;;;;;;;0.75;0.68;;;;;;;;;;5014668;28;20363;-81
2022/06/10 05:47:00;;;;;;;0.47;0.47;;;;;;;;;;5046871;28;20073;-80
2022/06/10 05:49:26;;;;;;;0.75;0.32;;;;;;;;;;5014647;28;20030;-81
2022/06/10 05:51:51;;;;;;;0.20;0.20;;;;;;;;;;5047068;28;20109;-80
2022/06/10 05:54:17;;;;;;;0.40;0.40;;;;;;;;;;5014609;28;20530;-81
2022/06/10 05:56:45;;;;;;;0.85;0.82;;;;;;;;;;5013882;28;20463;-80
2022/06/10 05:59:13;;;;;;;0.40;0.40;;;;;;;;;;5014762;28;20326;-81
2022/06/10 06:01:38;;;;;;;0.55;0.55;;;;;;;;;;5014544;28;20021;-81
2022/06/10 06:04:03;;;;;;;0.43;0.43;;;;;;;;;;5014764;28;20108;-81
2022/06/10 06:06:31;;;;;;;1.70;0.70;;;;;;;;;;5013509;28;20034;-81
2022/06/10 06:08:56;;;;;;;0.38;0.30;;;;;;;;;;5014345;28;20089;-80
2022/06/10 06:11:24;;;;;;;0.55;0.55;;;;;;;;;;5014976;28;20042;-81
2022/06/10 06:13:50;;;;;;;0.20;0.20;;;;;;;;;;5014402;28;20116;-81
2022/06/10 06:16:17;;;;;;;0.30;0.28;;;;;;;;;;5014333;28;20112;-81
2022/06/10 06:18:45;;;;;;;0.32;0.32;;;;;;;;;;5014281;28;20403;-81
2022/06/10 06:21:12;;;;;;;3.10;0.50;;;;;;;;;;4997079;28;20463;-79
2022/06/10 06:23:38;;;;;;;0.50;0.50;;;;;;;;;;5014586;28;20054;-79
2022/06/10 06:26:03;;;;;;;0.70;0.63;;;;;;;;;;5014340;28;20061;-79
2022/06/10 06:28:29;;;;;;;0.10;0.10;;;;;;;;;;5046254;28;20443;-78
2022/06/10 06:30:55;;;;;;;0.20;0.20;;;;;;;;;;5015995;28;20038;-84
2022/06/10 06:33:20;;;;;;;12.43;1.80;;;;;;;;;;5018028;28;20041;-81
2022/06/10 06:35:50;;;;;;;0.25;0.25;;;;;;;;;;5049789;28;20036;-80
2022/06/10 06:38:16;;;;;;;0.55;0.55;;;;;;;;;;5033414;28;20116;-80
2022/06/10 06:40:43;;;;;;;0.47;0.40;;;;;;;;;;5017736;28;20105;-81
2022/06/10 06:43:09;;;;;;;1.08;0.90;;;;;;;;;;5049723;28;20049;-79
2022/06/10 06:45:35;;;;;;;0.52;0.52;;;;;;;;;;5016662;28;20498;-80
2022/06/10 06:48:09;;;;;;;1.23;1.15;;;;;;;;;;5017470;28;20018;-79
2022/06/10 06:50:37;;;;;;;0.10;0.10;;;;;;;;;;5016681;28;20030;-80
2022/06/10 06:53:02;;;;;;;0.50;0.50;;;;;;;;;;5032808;28;20375;-81
2022/06/10 06:55:28;;;;;;;0.30;0.30;;;;;;;;;;5017517;28;20026;-81
2022/06/10 06:57:53;;;;;;;0.47;0.40;;;;;;;;;;5017586;28;20054;-80
2022/06/10 07:00:19;;;;;;;0.10;0.10;;;;;;;;;;5049358;28;20041;-81
2022/06/10 07:02:45;;;;;;;2.17;1.38;;;;;;;;;;5017480;28;20033;-79
2022/06/10 07:05:13;;;;;;;2.20;0.50;;;;;;;;;;5032686;28;20092;-80
2022/06/10 07:07:42;;;;;;;0.20;0.20;;;;;;;;;;5017025;28;20057;-80
2022/06/10 07:10:11;;;;;;;2.95;0.93;;;;;;;;;;5017290;28;20030;-80
2022/06/10 07:12:36;;;;;;;1.23;0.38;;;;;;;;;;5016956;28;20448;-80
2022/06/10 07:15:05;;;;;;;0.80;0.25;;;;;;;;;;5049169;28;20022;-80
2022/06/10 07:17:32;;;;;;;0.10;0.10;;;;;;;;;;5049367;28;20405;-80
2022/06/10 07:20:01;;;;;;;0.17;0.13;;;;;;;;;;5016878;28;20064;-79
2022/06/10 07:22:26;;;;;;;0.77;0.70;;;;;;;;;;5016880;28;20033;-79
2022/06/10 07:24:55;;;;;;;0.90;0.82;;;;;;;;;;5049061;28;20022;-80
2022/06/10 07:27:23;;;;;;;0.25;0.20;;;;;;;;;;5016052;28;20033;-80
2022/06/10 07:29:48;;;;;;;0.20;0.20;;;;;;;;;;5017317;28;20034;-79
2022/06/10 07:32:15;;;;;;;1.02;0.30;;;;;;;;;;5048846;28;20022;-80
2022/06/10 07:34:40;;;;;;;0.95;0.52;;;;;;;;;;5016839;28;20061;-80
2022/06/10 07:37:06;;;;;;;0.30;0.28;;;;;;;;;;5016987;28;20025;-80
2022/06/10 07:39:32;;;;;;;0.80;0.70;;;;;;;;;;5016864;28;20055;-79
2022/06/10 07:42:00;;;;;;;0.32;0.32;;;;;;;;;;5049181;28;20021;-78
2022/06/10 07:44:30;;;;;;;11.98;0.65;;;;;;;;;;5017359;28;20109;-79
2022/06/10 07:46:57;;;;;;;0.43;0.43;;;;;;;;;;5015695;28;20029;-80
2022/06/10 07:49:27;;;;;;;0.40;0.40;;;;;;;;;;5016511;28;20444;-79
2022/06/10 07:51:55;;;;;;;0.20;0.20;;;;;;;;;;5016742;28;20041;-79
2022/06/10 07:54:20;;;;;;;1.70;0.60;;;;;;;;;;5016259;28;20033;-80
2022/06/10 07:56:46;;;;;;;3.72;0.75;;;;;;;;;;5016468;28;20026;-78
2022/06/10 07:59:14;;;;;;;3.47;0.20;;;;;;;;;;5016203;28;20018;-80
2022/06/10 08:01:40;;;;;;;0.10;0.10;;;;;;;;;;5016261;28;20025;-79
2022/06/10 08:04:06;;;;;;;0.95;0.52;;;;;;;;;;5016458;28;20443;-80
2022/06/10 08:06:47;;;;;;;1.38;0.55;;;;;;;;;;5016339;28;20084;-81
2022/06/10 08:12:38;;;;;;;0.90;0.20;;;;;;;;;;5016161;28;20376;-78
2022/06/10 08:15:03;;;;;;;1.00;0.70;;;;;;;;;;5031457;28;20030;-79
2022/06/10 08:17:35;;;;;;;0.22;0.22;;;;;;;;;;5015714;28;20022;-79
2022/06/10 08:23:23;;;;;;;1.48;0.68;;;;;;;;;;5016186;28;20044;-79
2022/06/10 08:25:51;;;;;;;4.65;0.75;;;;;;;;;;5016591;28;20212;-79
2022/06/10 08:28:20;;;;;;;1.13;1.02;;;;;;;;;;5014684;28;20026;-80
2022/06/10 08:30:45;;;;;;;0.50;0.50;;;;;;;;;;5015632;28;20034;-81
2022/06/10 08:33:24;;;;;;;0.20;0.20;;;;;;;;;;5031004;28;20033;-79
2022/06/10 08:35:52;;;;;;;0.30;0.30;;;;;;;;;;5015968;28;20041;-81
2022/06/10 08:38:20;;;;;;;1.60;0.98;;;;;;;;;;5015682;28;20025;-79
2022/06/10 08:41:07;;;;;;;0.05;0.05;;;;;;;;;;5014923;28;20030;-84
2022/06/10 08:43:38;;;;;;;0.20;0.17;;;;;;;;;;5048207;28;20378;-79
2022/06/10 08:46:38;;;;;;;0.55;0.40;;;;;;;;;;5015739;28;20037;-83
2022/06/10 08:49:16;;;;;;;0.28;0.28;;;;;;;;;;5015626;28;20018;-83
2022/06/10 08:51:52;;;;;;;0.40;0.32;;;;;;;;;;5047982;28;20100;-83
2022/06/10 08:54:42;;;;;;;3.50;0.68;;;;;;;;;;5047074;28;20510;-83
2022/06/10 08:57:26;;;;;;;0.32;0.32;;;;;;;;;;5030947;28;20034;-85
2022/06/10 08:59:53;;;;;;;0.00;0.00;;;;;;;;;;5014671;28;20431;-81
2022/06/10 09:02:31;;;;;;;2.92;0.25;;;;;;;;;;4997864;28;20037;-83
2022/06/10 09:04:59;;;;;;;0.40;0.38;;;;;;;;;;5030493;28;20029;-82
2022/06/10 09:08:00;;;;;;;0.32;0.32;;;;;;;;;;5047577;28;20030;-83
2022/06/10 09:10:42;;;;;;;0.30;0.30;;;;;;;;;;5014054;28;20030;-84
2022/06/10 09:13:14;;;;;;;;;;;;;;;;;;5031226;28;20412;-83
2022/06/10 09:15:54;;;;;;;0.10;0.10;;;;;;;;;;5030638;28;19928;-80
2022/06/10 09:32:13;;;;;;;0.88;0.68;;;;;;;;;;4975159;28;20428;-82
2022/06/10 09:34:57;;;;;;;0.20;0.20;;;;;;;;;;4958553;28;20035;-83
2022/06/10 09:37:52;;;;;;;0.10;0.10;;;;;;;;;;4957886;28;20035;-83
2022/06/10 09:40:38;;;;;;;0.30;0.30;;;;;;;;;;4974863;28;20101;-82
2022/06/10 09:43:06;;;;;;;0.10;0.10;;;;;;;;;;4959795;28;20030;-80
2022/06/10 09:45:47;;;;;;;0.20;0.20;;;;;;;;;;4957800;28;20061;-80
2022/06/10 09:48:24;;;;;;;0.47;0.40;;;;;;;;;;4974112;28;20503;-83
2022/06/10 09:50:49;;;;;;;3.95;0.45;;;;;;;;;;4957785;28;20038;-77
2022/06/10 09:53:26;;;;;;;0.10;0.10;;;;;;;;;;4974018;28;20201;-78
2022/06/10 09:55:55;;;;;;;0.45;0.32;;;;;;;;;;4973872;28;20078;-79
2022/06/10 09:59:12;;;;;;;0.10;0.10;;;;;;;;;;4999490;28;20443;-80
2022/06/10 10:02:02;;;;;;;0.40;0.28;;;;;;;;;;5012712;28;20037;-79
2022/06/10 10:04:46;;;;;;;15.20;0.55;;;;;;;;;;5013561;28;20238;-80
2022/06/10 10:07:23;;;;;;;0.55;0.55;;;;;;;;;;5018469;28;20030;-77
2022/06/10 10:10:32;;;;;;;0.40;0.40;;;;;;;;;;5017978;28;20030;-78
2022/06/10 10:20:07;;;;;;;0.35;0.30;;;;;;;;;;5019592;28;20672;-81
2022/06/10 10:29:30;;;;;;;0.10;0.10;;;;;;;;;;5017684;28;20100;-81
2022/06/10 10:32:11;;;;;;;0.43;0.43;;;;;;;;;;5017484;28;20517;-79
2022/06/10 10:34:41;;;;;;;0.00;0.00;;;;;;;;;;5050312;28;20034;-79
2022/06/10 10:37:27;;;;;;;0.65;0.15;;;;;;;;;;5050063;28;20074;-78
2022/06/10 10:40:01;;;;;;;0.30;0.30;;;;;;;;;;5017635;28;20085;-80
2022/06/10 10:42:34;;;;;;;1.88;0.57;;;;;;;;;;5017371;28;20061;-81
2022/06/10 10:45:17;;;;;;;0.25;0.25;;;;;;;;;;5033094;28;20018;-81
2022/06/10 10:47:56;;;;;;;1.27;0.80;;;;;;;;;;5017649;28;20480;-80
2022/06/10 10:50:34;;;;;;;0.75;0.08;;;;;;;;;;5033224;28;20033;-80
2022/06/10 10:53:22;;;;;;;0.10;0.10;;;;;;;;;;5016541;28;20041;-78
2022/06/10 10:55:51;;;;;;;0.10;0.10;;;;;;;;;;5016728;28;20482;-79
2022/06/10 10:58:21;;;;;;;0.93;0.50;;;;;;;;;;5016307;28;20054;-82
2022/06/10 11:00:55;;;;;;;3.20;0.77;;;;;;;;;;5050101;28;20057;-79
2022/06/10 11:03:25;;;;;;;0.35;0.30;;;;;;;;;;5017000;28;20032;-79
2022/06/10 11:05:56;;;;;;;0.10;0.10;;;;;;;;;;5017348;28;20064;-81
2022/06/10 11:08:30;;;;;;;1.50;0.80;;;;;;;;;;5017307;28;20370;-82
2022/06/10 11:11:19;;;;;;;0.22;0.22;;;;;;;;;;5032427;28;20053;-81
2022/06/10 11:13:54;;;;;;;1.95;0.50;;;;;;;;;;5015977;28;20136;-81
2022/06/10 11:16:31;;;;;;;0.98;0.88;;;;;;;;;;5049692;28;20207;-80
2022/06/10 11:19:05;;;;;;;5.57;1.00;;;;;;;;;;5048954;28;20447;-84
2022/06/10 11:22:03;;;;;;;1.13;1.05;;;;;;;;;;5015757;28;20026;-79
2022/06/10 11:24:38;;;;;;;8.68;0.68;;;;;;;;;;5048678;28;20080;-82
2022/06/10 11:27:21;;;;;;;0.80;0.65;;;;;;;;;;5032702;28;20021;-80
2022/06/10 11:30:23;;;;;;;0.22;0.22;;;;;;;;;;5016922;28;20459;-81
2022/06/10 11:32:48;;;;;;;1.02;0.57;;;;;;;;;;5011973;28;20415;-82
2022/06/10 11:35:42;;;;;;;0.40;0.40;;;;;;;;;;5016795;28;20169;-79
2022/06/10 11:38:15;;;;;;;0.65;0.47;;;;;;;;;;5048339;28;20113;-80
2022/06/10 11:40:43;;;;;;;2.97;0.90;;;;;;;;;;5016685;28;20084;-80
2022/06/10 11:43:19;;;;;;;0.43;0.43;;;;;;;;;;5049240;28;20141;-80
2022/06/10 11:46:09;;;;;;;0.30;0.30;;;;;;;;;;5015904;28;20033;-80
2022/06/10 11:48:55;;;;;;;0.30;0.30;;;;;;;;;;4999183;28;20033;-78
2022/06/10 11:51:28;;;;;;;2.13;0.80;;;;;;;;;;5021190;28;20085;-79
2022/06/10 11:54:05;;;;;;;0.40;0.35;;;;;;;;;;5016306;28;20040;-79
2022/06/10 11:59:58;;;;;;;0.20;0.20;;;;;;;;;;5015804;28;20060;-80
2022/06/10 12:02:32;;;;;;;0.38;0.38;;;;;;;;;;5048571;28;20022;-82
2022/06/10 12:05:16;;;;;;;0.65;0.65;;;;;;;;;;5048217;28;20030;-81
2022/06/10 12:07:51;;;;;;;0.13;0.13;;;;;;;;;;5016348;28;20022;-82
2022/06/10 12:10:23;;;;;;;4.10;0.57;;;;;;;;;;4999044;28;20048;-82
2022/06/10 12:12:48;;;;;;;0.47;0.32;;;;;;;;;;5031308;28;20026;-81
2022/06/10 12:15:24;;;;;;;0.22;0.22;;;;;;;;;;5015251;28;20109;-81
2022/06/10 12:17:55;;;;;;;0.35;0.15;;;;;;;;;;5015213;28;20049;-80
2022/06/10 12:20:50;;;;;;;0.20;0.20;;;;;;;;;;5015368;28;20022;-82
2022/06/10 12:23:24;;;;;;;1.58;0.73;;;;;;;;;;5031094;28;20049;-81
2022/06/10 12:25:56;;;;;;;0.10;0.10;;;;;;;;;;5048437;28;20029;-82
2022/06/10 12:28:41;;;;;;;1.05;0.40;;;;;;;;;;5015471;28;20032;-85
2022/06/10 12:31:34;;;;;;;0.08;0.08;;;;;;;;;;5016997;28;20113;-84
2022/06/10 12:34:23;;;;;;;0.80;0.55;;;;;;;;;;5017742;28;20080;-82
2022/06/10 12:43:41;;;;;;;0.03;0.03;;;;;;;;;;5017289;28;20490;-83
2022/06/10 12:46:26;;;;;;;0.20;0.20;;;;;;;;;;5016159;28;20041;-82
2022/06/10 12:48:54;;;;;;;0.17;0.17;;;;;;;;;;5016596;28;20109;-83
2022/06/10 12:51:43;;;;;;;0.25;0.25;;;;;;;;;;5048331;28;20021;-83
2022/06/10 12:54:24;;;;;;;0.17;0.17;;;;;;;;;;5032183;28;20026;-83
2022/06/10 12:57:21;;;;;;;0.30;0.30;;;;;;;;;;5049000;28;20025;-81
2022/06/10 12:59:49;;;;;;;0.10;0.10;;;;;;;;;;5015889;28;20040;-84
2022/06/10 13:02:54;;;;;;;0.38;0.38;;;;;;;;;;5015671;28;20458;-82
2022/06/10 13:05:47;;;;;;;0.20;0.20;;;;;;;;;;4998076;28;20060;-83
2022/06/10 13:08:34;;;;;;;2.35;0.93;;;;;;;;;;5016571;28;20057;-85
2022/06/10 13:11:08;;;;;;;1.92;0.93;;;;;;;;;;5016683;28;20034;-82
2022/06/10 13:14:23;;;;;;;0.25;0.25;;;;;;;;;;5015058;28;20037;-83
2022/06/10 13:28:45;;;;;;;0.45;0.45;;;;;;;;;;5108336;22;20055;-81
2022/06/10 13:31:24;;;;;;;0.10;0.10;;;;;;;;;;5114648;28;20480;-82
2022/06/10 13:34:04;;;;;;;0.13;0.10;;;;;;;;;;5114344;28;20027;-83
2022/06/10 13:36:46;;;;;;;0.50;0.50;;;;;;;;;;5114543;28;20353;-81
2022/06/10 13:39:35;;;;;;;;;;;;;;;;;;5115490;28;20042;-80
2022/06/10 13:42:03;;;;;;;0.15;0.15;;;;;;;;;;5085265;28;19911;-83
2022/06/10 13:44:46;;;;;;;0.20;0.20;;;;;;;;;;5116946;28;20098;-82
2022/06/10 13:47:25;;;;;;;0.73;0.35;;;;;;;;;;5080400;28;20024;-82
2022/06/10 13:53:04;;;;;;;0.68;0.68;;;;;;;;;;5113756;28;20050;-83
2022/06/10 13:55:35;;;;;;;0.82;0.82;;;;;;;;;;5118281;28;20031;-81
2022/06/10 13:58:04;;;;;;;0.32;0.32;;;;;;;;;;5117878;28;20458;-82
2022/06/10 14:00:33;;;;;;;0.22;0.22;;;;;;;;;;5100463;28;20080;-81
2022/06/10 14:02:59;;;;;;;0.45;0.45;;;;;;;;;;5113231;28;20035;-81
2022/06/10 14:05:48;;;;;;;1.88;0.73;;;;;;;;;;5117594;28;20736;-82
2022/06/10 14:08:16;;;;;;;3.38;0.75;;;;;;;;;;5102741;28;20400;-81
2022/06/10 14:10:47;;;;;;;0.20;0.20;;;;;;;;;;5100460;28;20023;-84
2022/06/10 14:13:20;;;;;;;0.52;0.52;;;;;;;;;;5117118;28;20462;-81
2022/06/10 14:16:00;;;;;;;0.00;0.00;;;;;;;;;;5100725;28;20452;-82
2022/06/10 14:18:27;;;;;;;0.30;0.30;;;;;;;;;;5098970;28;20510;-80
2022/06/10 14:20:58;;;;;;;1.58;0.50;;;;;;;;;;5098485;28;20039;-82
2022/06/10 14:23:30;;;;;;;0.10;0.10;;;;;;;;;;5097272;28;20444;-79
2022/06/10 14:26:18;;;;;;;0.88;0.77;;;;;;;;;;5117788;28;20019;-82
2022/06/10 14:28:44;;;;;;;0.20;0.20;;;;;;;;;;5099752;28;20034;-82
2022/06/10 14:31:40;;;;;;;0.00;0.00;;;;;;;;;;5114587;28;20024;-80
2022/06/10 14:34:23;;;;;;;0.43;0.43;;;;;;;;;;5093024;28;20349;-78
2022/06/10 14:37:05;;;;;;;0.43;0.43;;;;;;;;;;5095907;28;20042;-80
2022/06/10 14:39:32;;;;;;;3.13;1.05;;;;;;;;;;5083726;28;20059;-79
2022/06/10 14:42:12;;;;;;;4.30;0.88;;;;;;;;;;5111210;28;20076;-81
2022/06/10 14:44:46;;;;;;;2.28;0.40;;;;;;;;;;5104000;28;20015;-81
2022/06/10 14:47:13;;;;;;;0.25;0.25;;;;;;;;;;5106894;28;20074;-81
2022/06/10 14:49:40;;;;;;;0.10;0.10;;;;;;;;;;5075910;28;20028;-81
2022/06/10 14:52:20;;;;;;;0.30;0.30;;;;;;;;;;5110591;28;20055;-81
2022/06/10 14:54:48;;;;;;;0.52;0.52;;;;;;;;;;5109993;28;20065;-81
2022/06/10 14:57:18;;;;;;;0.10;0.10;;;;;;;;;;5080054;28;20019;-81
2022/06/10 14:59:44;;;;;;;0.90;0.40;;;;;;;;;;5110643;28;20077;-81
2022/06/10 15:02:10;;;;;;;1.48;0.55;;;;;;;;;;5098969;28;20019;-82
2022/06/10 15:04:35;;;;;;;0.30;0.30;;;;;;;;;;5094021;28;20042;-82
2022/06/10 15:07:22;;;;;;;1.00;0.55;;;;;;;;;;5091380;28;20123;-82
2022/06/10 15:09:54;;;;;;;0.30;0.30;;;;;;;;;;5093826;28;20070;-81
2022/06/10 15:12:20;;;;;;;;;;;;;;;;;;5099395;28;20408;-81
2022/06/10 15:14:46;;;;;;;0.17;0.17;;;;;;;;;;5104249;27;20007;-80
2022/06/10 15:17:12;;;;;;;0.70;0.35;;;;;;;;;;5065879;28;20095;-83
2022/06/10 15:19:39;;;;;;;0.20;0.20;;;;;;;;;;5092796;28;20043;-80
2022/06/10 15:22:05;;;;;;;0.30;0.30;;;;;;;;;;5112389;28;20096;-82
2022/06/10 15:24:30;;;;;;;0.75;0.73;;;;;;;;;;5117453;28;20043;-81
2022/06/10 15:26:56;;;;;;;0.20;0.20;;;;;;;;;;5104785;28;20079;-83
2022/06/10 15:29:26;;;;;;;1.63;0.70;;;;;;;;;;5096027;28;20035;-84
2022/06/10 15:31:55;;;;;;;0.40;0.40;;;;;;;;;;5106299;28;20035;-84
2022/06/10 15:34:21;;;;;;;0.65;0.52;;;;;;;;;;5085837;28;20679;-83
2022/06/10 15:42:21;;;;;;;0.32;0.30;;;;;;;;;;5098021;28;20037;-84
2022/06/10 15:44:47;;;;;;;0.70;0.40;;;;;;;;;;5095761;28;20448;-82
2022/06/10 15:47:15;;;;;;;1.20;0.80;;;;;;;;;;5097806;28;20027;-83
2022/06/10 15:49:44;;;;;;;0.85;0.85;;;;;;;;;;5115864;28;20095;-82
2022/06/10 15:52:28;;;;;;;0.60;0.45;;;;;;;;;;5113242;28;20122;-81
2022/06/10 15:57:45;;;;;;;0.13;0.13;;;;;;;;;;5071523;28;20451;-82
2022/06/10 16:00:14;;;;;;;0.43;0.43;;;;;;;;;;5106006;28;20050;-81
2022/06/10 16:02:39;;;;;;;2.22;0.32;;;;;;;;;;5109170;28;20019;-84
2022/06/10 16:05:20;;;;;;;0.80;0.20;;;;;;;;;;5115498;28;20038;-82
2022/06/10 16:07:48;;;;;;;0.93;0.40;;;;;;;;;;5097016;28;20044;-87
2022/06/10 16:10:14;;;;;;;1.42;0.45;;;;;;;;;;5110858;28;20034;-87
2022/06/10 16:15:37;;;;;;;0.57;0.50;;;;;;;;;;5098626;28;20042;-85
2022/06/10 16:18:09;;;;;;;0.40;0.40;;;;;;;;;;5094058;28;20106;-81
2022/06/10 16:20:34;;;;;;;0.73;0.52;;;;;;;;;;5096401;28;20032;-80
2022/06/10 16:23:04;;;;;;;4.97;1.73;;;;;;;;;;5112640;28;20393;-81
2022/06/10 16:25:30;;;;;;;1.17;0.30;;;;;;;;;;5094989;28;20024;-84
2022/06/10 16:27:58;;;;;;;7.57;1.10;;;;;;;;;;5084018;28;20115;-82
2022/06/10 16:30:28;;;;;;;0.28;0.28;;;;;;;;;;5108435;28;20415;-83
2022/06/10 16:32:57;;;;;;;0.30;0.30;;;;;;;;;;5083943;28;20023;-77
2022/06/10 16:35:26;;;;;;;0.17;0.17;;;;;;;;;;5093617;28;20023;-77